sensor_id;sensor_type;location;lat;lon;timestamp;pressure;altitude;pressure_sealevel;temperature;humidity
21547;BME280;41275;51.912;4.388;2023-02-16T00:04:00;102351.69;;;13.93;47.51
21547;BME280;41275;51.912;4.388;2023-02-16T00:09:23;102343.91;;;13.92;47.69
21547;BME280;41275;51.912;4.388;2023-02-16T00:14:44;102333.06;;;13.87;47.73
21547;BME280;41275;51.912;4.388;2023-02-16T00:20:13;102339.59;;;13.91;47.84
21547;BME280;41275;51.912;4.388;2023-02-16T00:25:35;102334.09;;;13.86;47.43
21547;BME280;41275;51.912;4.388;2023-02-16T00:30:56;102343.56;;;13.75;47.55
21547;BME280;41275;51.912;4.388;2023-02-16T00:36:17;102336.84;;;13.66;47.50
21547;BME280;41275;51.912;4.388;2023-02-16T00:41:39;102333.38;;;13.59;47.65
21547;BME280;41275;51.912;4.388;2023-02-16T00:47:19;102328.69;;;13.54;47.97
21547;BME280;41275;51.912;4.388;2023-02-16T00:52:42;102325.63;;;13.57;48.09
21547;BME280;41275;51.912;4.388;2023-02-16T00:58:23;102323.94;;;13.69;47.62
21547;BME280;41275;51.912;4.388;2023-02-16T01:03:45;102317.00;;;13.68;47.40
21547;BME280;41275;51.912;4.388;2023-02-16T01:09:18;102320.06;;;13.72;47.14
21547;BME280;41275;51.912;4.388;2023-02-16T01:14:58;102322.09;;;13.70;47.41
21547;BME280;41275;51.912;4.388;2023-02-16T01:20:21;102317.38;;;13.72;47.44
21547;BME280;41275;51.912;4.388;2023-02-16T01:25:43;102309.59;;;13.70;47.39
21547;BME280;41275;51.912;4.388;2023-02-16T01:31:04;102306.31;;;13.75;47.24
21547;BME280;41275;51.912;4.388;2023-02-16T01:36:33;102299.13;;;13.82;47.06
21547;BME280;41275;51.912;4.388;2023-02-16T01:42:09;102305.44;;;13.88;46.95
21547;BME280;41275;51.912;4.388;2023-02-16T01:47:53;102312.78;;;13.92;46.67
21547;BME280;41275;51.912;4.388;2023-02-16T01:53:39;102302.16;;;13.86;46.87
21547;BME280;41275;51.912;4.388;2023-02-16T01:59:09;102300.97;;;13.82;46.69
21547;BME280;41275;51.912;4.388;2023-02-16T02:16:20;102290.88;;;13.97;46.26
21547;BME280;41275;51.912;4.388;2023-02-16T02:21:59;102281.25;;;13.96;46.33
21547;BME280;41275;51.912;4.388;2023-02-16T02:27:53;102283.50;;;13.99;46.11
21547;BME280;41275;51.912;4.388;2023-02-16T02:38:58;102254.91;;;14.19;46.11
21547;BME280;41275;51.912;4.388;2023-02-16T02:44:23;102249.13;;;14.22;45.84
21547;BME280;41275;51.912;4.388;2023-02-16T02:49:48;102249.13;;;14.22;45.78
21547;BME280;41275;51.912;4.388;2023-02-16T02:55:10;102238.13;;;14.19;45.77
21547;BME280;41275;51.912;4.388;2023-02-16T03:00:50;102222.56;;;14.16;45.54
21547;BME280;41275;51.912;4.388;2023-02-16T03:06:17;102233.34;;;14.28;45.38
21547;BME280;41275;51.912;4.388;2023-02-16T03:11:40;102240.06;;;14.30;45.28
21547;BME280;41275;51.912;4.388;2023-02-16T03:17:35;102242.47;;;14.38;45.49
21547;BME280;41275;51.912;4.388;2023-02-16T03:23:16;102238.78;;;14.39;45.04
21547;BME280;41275;51.912;4.388;2023-02-16T03:28:56;102238.94;;;14.44;45.38
21547;BME280;41275;51.912;4.388;2023-02-16T03:34:36;102233.84;;;14.43;45.27
21547;BME280;41275;51.912;4.388;2023-02-16T03:39:58;102230.72;;;14.46;45.06
21547;BME280;41275;51.912;4.388;2023-02-16T03:45:40;102217.41;;;14.46;45.48
21547;BME280;41275;51.912;4.388;2023-02-16T03:51:02;102224.78;;;14.51;45.14
21547;BME280;41275;51.912;4.388;2023-02-16T03:56:23;102222.13;;;14.51;45.22
21547;BME280;41275;51.912;4.388;2023-02-16T04:01:44;102222.50;;;14.54;45.30
21547;BME280;41275;51.912;4.388;2023-02-16T04:07:06;102228.84;;;14.53;44.93
21547;BME280;41275;51.912;4.388;2023-02-16T04:12:27;102237.03;;;14.58;44.94
21547;BME280;41275;51.912;4.388;2023-02-16T04:17:57;102236.56;;;14.61;44.92
21547;BME280;41275;51.912;4.388;2023-02-16T04:23:19;102237.16;;;14.63;44.80
21547;BME280;41275;51.912;4.388;2023-02-16T04:28:40;102219.28;;;14.70;45.16
21547;BME280;41275;51.912;4.388;2023-02-16T04:34:01;102219.44;;;14.76;44.86
21547;BME280;41275;51.912;4.388;2023-02-16T04:39:22;102229.94;;;14.70;44.81
21547;BME280;41275;51.912;4.388;2023-02-16T04:44:44;102227.09;;;14.65;45.38
21547;BME280;41275;51.912;4.388;2023-02-16T04:50:06;102220.81;;;14.60;45.00
21547;BME280;41275;51.912;4.388;2023-02-16T04:55:27;102217.91;;;14.61;45.38
21547;BME280;41275;51.912;4.388;2023-02-16T05:00:49;102225.84;;;14.68;45.17
21547;BME280;41275;51.912;4.388;2023-02-16T05:06:10;102222.38;;;14.67;45.39
21547;BME280;41275;51.912;4.388;2023-02-16T05:11:32;102204.53;;;14.68;45.22
21547;BME280;41275;51.912;4.388;2023-02-16T05:17:20;102202.91;;;14.67;45.26
21547;BME280;41275;51.912;4.388;2023-02-16T05:22:42;102209.28;;;14.66;45.34
21547;BME280;41275;51.912;4.388;2023-02-16T05:28:05;102204.31;;;14.69;45.38
21547;BME280;41275;51.912;4.388;2023-02-16T05:33:26;102209.44;;;14.71;45.45
21547;BME280;41275;51.912;4.388;2023-02-16T05:38:48;102223.78;;;14.70;45.94
21547;BME280;41275;51.912;4.388;2023-02-16T05:44:09;102214.16;;;14.69;45.95
21547;BME280;41275;51.912;4.388;2023-02-16T05:49:32;102205.28;;;14.75;45.71
21547;BME280;41275;51.912;4.388;2023-02-16T05:54:54;102216.75;;;14.76;45.75
21547;BME280;41275;51.912;4.388;2023-02-16T06:00:15;102210.25;;;14.71;46.04
21547;BME280;41275;51.912;4.388;2023-02-16T06:05:36;102205.50;;;14.73;46.17
21547;BME280;41275;51.912;4.388;2023-02-16T06:10:58;102204.47;;;14.75;46.35
21547;BME280;41275;51.912;4.388;2023-02-16T06:16:19;102202.78;;;14.80;46.03
21547;BME280;41275;51.912;4.388;2023-02-16T06:21:41;102203.59;;;14.81;46.15
21547;BME280;41275;51.912;4.388;2023-02-16T06:27:03;102205.22;;;14.82;46.10
21547;BME280;41275;51.912;4.388;2023-02-16T06:32:24;102210.75;;;14.80;46.17
21547;BME280;41275;51.912;4.388;2023-02-16T06:37:45;102213.06;;;14.77;46.09
21547;BME280;41275;51.912;4.388;2023-02-16T06:43:06;102220.47;;;14.75;46.47
21547;BME280;41275;51.912;4.388;2023-02-16T06:48:28;102226.38;;;14.77;46.33
21547;BME280;41275;51.912;4.388;2023-02-16T06:53:49;102227.84;;;14.72;46.41
21547;BME280;41275;51.912;4.388;2023-02-16T06:59:11;102242.59;;;14.75;45.89
21547;BME280;41275;51.912;4.388;2023-02-16T07:04:32;102244.22;;;14.76;46.07
21547;BME280;41275;51.912;4.388;2023-02-16T07:09:53;102239.94;;;14.75;46.31
21547;BME280;41275;51.912;4.388;2023-02-16T07:15:15;102234.88;;;14.67;46.15
21547;BME280;41275;51.912;4.388;2023-02-16T07:20:36;102244.44;;;14.75;46.15
21547;BME280;41275;51.912;4.388;2023-02-16T07:25:57;102243.78;;;14.79;46.07
21547;BME280;41275;51.912;4.388;2023-02-16T07:31:19;102246.06;;;14.76;46.55
21547;BME280;41275;51.912;4.388;2023-02-16T07:36:40;102259.94;;;14.84;46.38
21547;BME280;41275;51.912;4.388;2023-02-16T07:42:02;102265.69;;;14.81;46.51
21547;BME280;41275;51.912;4.388;2023-02-16T07:47:23;102270.44;;;14.79;46.58
21547;BME280;41275;51.912;4.388;2023-02-16T07:52:44;102272.00;;;14.87;46.77
21547;BME280;41275;51.912;4.388;2023-02-16T07:58:06;102282.06;;;14.85;46.82
21547;BME280;41275;51.912;4.388;2023-02-16T08:03:27;102280.00;;;14.87;47.46
21547;BME280;41275;51.912;4.388;2023-02-16T08:08:49;102282.44;;;14.88;48.04
21547;BME280;41275;51.912;4.388;2023-02-16T08:14:10;102282.44;;;14.88;47.97
21547;BME280;41275;51.912;4.388;2023-02-16T08:19:32;102280.44;;;14.84;48.36
21547;BME280;41275;51.912;4.388;2023-02-16T08:24:53;102281.09;;;14.79;48.76
21547;BME280;41275;51.912;4.388;2023-02-16T08:30:15;102285.00;;;14.77;48.78
21547;BME280;41275;51.912;4.388;2023-02-16T08:35:38;102299.13;;;14.77;49.20
21547;BME280;41275;51.912;4.388;2023-02-16T08:40:59;102294.66;;;14.78;49.63
21547;BME280;41275;51.912;4.388;2023-02-16T08:46:20;102291.84;;;14.91;49.66
21547;BME280;41275;51.912;4.388;2023-02-16T08:51:45;102292.75;;;15.03;49.69
21547;BME280;41275;51.912;4.388;2023-02-16T08:57:07;102298.63;;;15.12;49.73
21547;BME280;41275;51.912;4.388;2023-02-16T09:02:28;102312.72;;;15.19;49.52
21547;BME280;41275;51.912;4.388;2023-02-16T09:07:49;102296.19;;;15.10;49.77
21547;BME280;41275;51.912;4.388;2023-02-16T09:13:12;102284.25;;;15.13;50.21
21547;BME280;41275;51.912;4.388;2023-02-16T09:18:35;102295.47;;;15.21;50.01
21547;BME280;41275;51.912;4.388;2023-02-16T09:23:58;102287.09;;;15.18;50.03
21547;BME280;41275;51.912;4.388;2023-02-16T09:29:20;102285.72;;;15.09;50.22
21547;BME280;41275;51.912;4.388;2023-02-16T09:34:43;102282.41;;;15.13;50.42
21547;BME280;41275;51.912;4.388;2023-02-16T09:40:05;102279.47;;;15.21;50.90
21547;BME280;41275;51.912;4.388;2023-02-16T09:45:27;102270.13;;;15.49;50.51
21547;BME280;41275;51.912;4.388;2023-02-16T09:50:52;102267.28;;;15.81;50.62
21547;BME280;41275;51.912;4.388;2023-02-16T09:56:20;102264.22;;;15.95;50.32
21547;BME280;41275;51.912;4.388;2023-02-16T10:02:02;102260.66;;;16.13;50.12
21547;BME280;41275;51.912;4.388;2023-02-16T10:18:46;102242.16;;;16.77;49.36
21547;BME280;41275;51.912;4.388;2023-02-16T10:24:11;102261.59;;;16.84;49.26
21547;BME280;41275;51.912;4.388;2023-02-16T10:29:33;102256.94;;;16.80;48.85
21547;BME280;41275;51.912;4.388;2023-02-16T10:35:13;102261.19;;;16.57;49.02
21547;BME280;41275;51.912;4.388;2023-02-16T10:40:51;102264.13;;;16.67;48.98
21547;BME280;41275;51.912;4.388;2023-02-16T10:46:36;102248.91;;;16.80;48.78
21547;BME280;41275;51.912;4.388;2023-02-16T10:52:00;102247.06;;;16.92;49.29
21547;BME280;41275;51.912;4.388;2023-02-16T10:57:26;102250.06;;;17.07;48.78
21547;BME280;41275;51.912;4.388;2023-02-16T11:02:49;102248.78;;;17.22;48.69
21547;BME280;41275;51.912;4.388;2023-02-16T11:08:11;102234.44;;;17.28;48.79
21547;BME280;41275;51.912;4.388;2023-02-16T11:13:35;102243.31;;;17.57;48.24
21547;BME280;41275;51.912;4.388;2023-02-16T11:19:05;102250.06;;;17.88;48.34
21547;BME280;41275;51.912;4.388;2023-02-16T11:24:37;102252.66;;;17.83;47.84
21547;BME280;41275;51.912;4.388;2023-02-16T11:30:18;102239.59;;;17.86;47.81
21547;BME280;41275;51.912;4.388;2023-02-16T11:35:43;102237.03;;;18.08;47.73
21547;BME280;41275;51.912;4.388;2023-02-16T11:41:05;102235.44;;;18.24;47.21
21547;BME280;41275;51.912;4.388;2023-02-16T11:46:28;102221.03;;;18.30;46.92
21547;BME280;41275;51.912;4.388;2023-02-16T11:51:58;102222.50;;;18.38;46.18
21547;BME280;41275;51.912;4.388;2023-02-16T11:57:25;102217.00;;;18.45;46.20
21547;BME280;41275;51.912;4.388;2023-02-16T12:03:05;102205.19;;;18.79;46.07
21547;BME280;41275;51.912;4.388;2023-02-16T12:19:44;102181.44;;;19.10;45.28
21547;BME280;41275;51.912;4.388;2023-02-16T12:25:26;102172.44;;;19.48;44.42
21547;BME280;41275;51.912;4.388;2023-02-16T12:47:56;102151.63;;;19.60;42.03
21547;BME280;41275;51.912;4.388;2023-02-16T12:54:13;102159.03;;;19.48;41.90
21547;BME280;41275;51.912;4.388;2023-02-16T12:59:47;102150.28;;;19.09;42.64
21547;BME280;41275;51.912;4.388;2023-02-16T13:05:26;102139.06;;;19.12;43.13
21547;BME280;41275;51.912;4.388;2023-02-16T13:10:55;102099.66;;;19.18;43.15
21547;BME280;41275;51.912;4.388;2023-02-16T13:16:25;102098.66;;;19.51;43.14
21547;BME280;41275;51.912;4.388;2023-02-16T13:27:45;102114.06;;;18.84;43.13
21547;BME280;41275;51.912;4.388;2023-02-16T13:39:15;102087.78;;;18.64;44.43
21547;BME280;41275;51.912;4.388;2023-02-16T13:44:46;102087.84;;;18.92;44.48
21547;BME280;41275;51.912;4.388;2023-02-16T13:55:45;102053.06;;;19.02;44.36
21547;BME280;41275;51.912;4.388;2023-02-16T14:12:27;102049.63;;;18.79;44.43
21547;BME280;41275;51.912;4.388;2023-02-16T14:17:51;102031.41;;;18.59;44.68
21547;BME280;41275;51.912;4.388;2023-02-16T14:23:26;102037.66;;;18.43;45.27
21547;BME280;41275;51.912;4.388;2023-02-16T14:34:26;102032.81;;;18.01;46.41
21547;BME280;41275;51.912;4.388;2023-02-16T14:39:48;102056.94;;;17.84;47.30
21547;BME280;41275;51.912;4.388;2023-02-16T14:56:21;102036.22;;;17.63;48.27
21547;BME280;41275;51.912;4.388;2023-02-16T15:01:48;102024.88;;;17.56;48.37
21547;BME280;41275;51.912;4.388;2023-02-16T15:07:09;102016.59;;;17.57;48.37
21547;BME280;41275;51.912;4.388;2023-02-16T15:12:30;102020.56;;;17.55;48.52
21547;BME280;41275;51.912;4.388;2023-02-16T15:17:53;102014.09;;;17.51;48.72
21547;BME280;41275;51.912;4.388;2023-02-16T15:23:22;102022.84;;;17.46;48.74
21547;BME280;41275;51.912;4.388;2023-02-16T15:28:53;102024.94;;;17.44;48.61
21547;BME280;41275;51.912;4.388;2023-02-16T15:34:34;102026.41;;;17.35;48.87
21547;BME280;41275;51.912;4.388;2023-02-16T15:39:59;102026.06;;;17.31;48.90
21547;BME280;41275;51.912;4.388;2023-02-16T15:45:32;102042.78;;;17.38;49.17
21547;BME280;41275;51.912;4.388;2023-02-16T15:51:25;102033.09;;;17.21;49.13
21547;BME280;41275;51.912;4.388;2023-02-16T15:56:49;102036.16;;;16.96;49.93
21547;BME280;41275;51.912;4.388;2023-02-16T16:02:17;102030.84;;;16.84;51.09
21547;BME280;41275;51.912;4.388;2023-02-16T16:07:40;102023.09;;;16.71;51.50
21547;BME280;41275;51.912;4.388;2023-02-16T16:13:25;102019.16;;;16.61;52.03
21547;BME280;41275;51.912;4.388;2023-02-16T16:18:48;102014.53;;;16.57;52.19
21547;BME280;41275;51.912;4.388;2023-02-16T16:24:12;102006.66;;;16.38;52.90
21547;BME280;41275;51.912;4.388;2023-02-16T16:35:01;101999.50;;;16.27;53.84
21547;BME280;41275;51.912;4.388;2023-02-16T16:40:25;101992.66;;;16.31;53.82
21547;BME280;41275;51.912;4.388;2023-02-16T16:45:54;101985.91;;;16.29;53.74
21547;BME280;41275;51.912;4.388;2023-02-16T16:51:19;101978.13;;;16.27;54.41
21547;BME280;41275;51.912;4.388;2023-02-16T16:56:41;101959.66;;;16.26;54.63
21547;BME280;41275;51.912;4.388;2023-02-16T17:02:02;101965.69;;;16.33;54.79
21547;BME280;41275;51.912;4.388;2023-02-16T17:07:23;101974.75;;;16.32;54.93
21547;BME280;41275;51.912;4.388;2023-02-16T17:12:47;101974.97;;;16.30;55.19
21547;BME280;41275;51.912;4.388;2023-02-16T17:18:15;101973.81;;;16.26;55.29
21547;BME280;41275;51.912;4.388;2023-02-16T17:23:37;101964.56;;;16.17;55.27
21547;BME280;41275;51.912;4.388;2023-02-16T17:28:59;101966.66;;;16.15;55.99
21547;BME280;41275;51.912;4.388;2023-02-16T17:34:21;101959.22;;;16.17;56.02
21547;BME280;41275;51.912;4.388;2023-02-16T17:39:49;101965.38;;;16.17;55.95
21547;BME280;41275;51.912;4.388;2023-02-16T17:45:10;101972.91;;;16.20;56.23
21547;BME280;41275;51.912;4.388;2023-02-16T17:50:32;101958.16;;;16.18;56.42
21547;BME280;41275;51.912;4.388;2023-02-16T17:55:55;101957.94;;;16.19;56.48
21547;BME280;41275;51.912;4.388;2023-02-16T18:01:17;101950.75;;;16.20;56.23
21547;BME280;41275;51.912;4.388;2023-02-16T18:06:38;101960.38;;;16.21;56.59
21547;BME280;41275;51.912;4.388;2023-02-16T18:12:00;101956.44;;;16.24;56.26
21547;BME280;41275;51.912;4.388;2023-02-16T18:17:21;101960.59;;;16.31;56.29
21547;BME280;41275;51.912;4.388;2023-02-16T18:22:42;101957.75;;;16.38;56.84
21547;BME280;41275;51.912;4.388;2023-02-16T18:28:04;101956.25;;;16.42;56.66
21547;BME280;41275;51.912;4.388;2023-02-16T18:33:25;101975.41;;;16.51;56.96
21547;BME280;41275;51.912;4.388;2023-02-16T18:38:50;101963.69;;;16.40;56.62
21547;BME280;41275;51.912;4.388;2023-02-16T18:44:11;101940.59;;;16.34;56.94
21547;BME280;41275;51.912;4.388;2023-02-16T18:49:32;101960.09;;;16.34;57.29
21547;BME280;41275;51.912;4.388;2023-02-16T18:54:53;101960.69;;;16.36;57.36
21547;BME280;41275;51.912;4.388;2023-02-16T19:00:15;101956.75;;;16.39;57.25
21547;BME280;41275;51.912;4.388;2023-02-16T19:05:37;101966.94;;;16.42;57.23
21547;BME280;41275;51.912;4.388;2023-02-16T19:10:58;101975.31;;;16.34;57.56
21547;BME280;41275;51.912;4.388;2023-02-16T19:16:19;101978.00;;;16.34;57.66
21547;BME280;41275;51.912;4.388;2023-02-16T19:21:40;101971.63;;;16.35;57.97
21547;BME280;41275;51.912;4.388;2023-02-16T19:27:04;101963.91;;;16.38;57.63
21547;BME280;41275;51.912;4.388;2023-02-16T19:32:25;101957.72;;;16.50;57.83
21547;BME280;41275;51.912;4.388;2023-02-16T19:37:46;101952.00;;;16.58;58.13
21547;BME280;41275;51.912;4.388;2023-02-16T19:43:07;101952.34;;;16.61;57.76
21547;BME280;41275;51.912;4.388;2023-02-16T19:48:29;101958.25;;;16.63;57.94
21547;BME280;41275;51.912;4.388;2023-02-16T19:53:50;101955.81;;;16.62;57.60
21547;BME280;41275;51.912;4.388;2023-02-16T19:59:11;101943.75;;;16.59;57.98
21547;BME280;41275;51.912;4.388;2023-02-16T20:04:35;101963.03;;;16.61;58.06
21547;BME280;41275;51.912;4.388;2023-02-16T20:09:56;101956.41;;;16.64;58.12
21547;BME280;41275;51.912;4.388;2023-02-16T20:15:17;101946.53;;;16.64;58.03
21547;BME280;41275;51.912;4.388;2023-02-16T20:20:38;101945.78;;;16.69;57.82
21547;BME280;41275;51.912;4.388;2023-02-16T20:26:04;101940.34;;;16.76;57.47
21547;BME280;41275;51.912;4.388;2023-02-16T20:31:27;101955.66;;;16.80;57.53
21547;BME280;41275;51.912;4.388;2023-02-16T20:36:48;101965.22;;;16.76;57.98
21547;BME280;41275;51.912;4.388;2023-02-16T20:42:09;101945.69;;;16.76;57.42
21547;BME280;41275;51.912;4.388;2023-02-16T20:47:32;101944.28;;;16.73;57.42
21547;BME280;41275;51.912;4.388;2023-02-16T20:52:53;101941.84;;;16.72;57.32
21547;BME280;41275;51.912;4.388;2023-02-16T20:58:15;101937.91;;;16.74;57.30
21547;BME280;41275;51.912;4.388;2023-02-16T21:03:36;101933.03;;;16.71;57.47
21547;BME280;41275;51.912;4.388;2023-02-16T21:08:57;101950.78;;;16.77;57.39
21547;BME280;41275;51.912;4.388;2023-02-16T21:14:18;101949.41;;;16.75;57.36
21547;BME280;41275;51.912;4.388;2023-02-16T21:19:39;101959.31;;;16.74;57.14
21547;BME280;41275;51.912;4.388;2023-02-16T21:25:01;101960.13;;;16.75;56.75
21547;BME280;41275;51.912;4.388;2023-02-16T21:30:22;101961.84;;;16.69;56.93
21547;BME280;41275;51.912;4.388;2023-02-16T21:35:45;101956.75;;;16.67;56.82
21547;BME280;41275;51.912;4.388;2023-02-16T21:41:11;101953.00;;;16.68;56.87
21547;BME280;41275;51.912;4.388;2023-02-16T21:46:46;101956.16;;;16.65;56.40
21547;BME280;41275;51.912;4.388;2023-02-16T21:52:07;101946.53;;;16.64;56.30
21547;BME280;41275;51.912;4.388;2023-02-16T21:57:29;101957.13;;;16.59;56.28
21547;BME280;41275;51.912;4.388;2023-02-16T22:02:50;101944.78;;;16.58;56.21
21547;BME280;41275;51.912;4.388;2023-02-16T22:08:11;101941.56;;;16.56;56.42
21547;BME280;41275;51.912;4.388;2023-02-16T22:13:33;101923.09;;;16.55;56.23
21547;BME280;41275;51.912;4.388;2023-02-16T22:19:06;101912.41;;;16.55;56.41
21547;BME280;41275;51.912;4.388;2023-02-16T22:24:27;101916.38;;;16.52;56.35
21547;BME280;41275;51.912;4.388;2023-02-16T22:29:50;101941.47;;;16.51;56.47
21547;BME280;41275;51.912;4.388;2023-02-16T22:35:11;101939.28;;;16.48;56.37
21547;BME280;41275;51.912;4.388;2023-02-16T22:40:32;101938.69;;;16.46;56.22
21547;BME280;41275;51.912;4.388;2023-02-16T22:45:54;101935.84;;;16.36;55.94
21547;BME280;41275;51.912;4.388;2023-02-16T22:51:15;101930.25;;;16.37;56.40
21547;BME280;41275;51.912;4.388;2023-02-16T22:56:37;101941.97;;;16.36;56.39
21547;BME280;41275;51.912;4.388;2023-02-16T23:01:58;101933.97;;;16.36;56.22
21547;BME280;41275;51.912;4.388;2023-02-16T23:07:19;101935.25;;;16.34;56.21
21547;BME280;41275;51.912;4.388;2023-02-16T23:12:40;101943.59;;;16.37;56.34
21547;BME280;41275;51.912;4.388;2023-02-16T23:18:02;101942.78;;;16.37;56.39
21547;BME280;41275;51.912;4.388;2023-02-16T23:23:24;101946.41;;;16.31;55.99
21547;BME280;41275;51.912;4.388;2023-02-16T23:28:49;101934.91;;;16.30;55.96
21547;BME280;41275;51.912;4.388;2023-02-16T23:34:10;101922.97;;;16.21;55.91
21547;BME280;41275;51.912;4.388;2023-02-16T23:39:32;101932.66;;;16.10;56.38
21547;BME280;41275;51.912;4.388;2023-02-16T23:44:53;101932.56;;;15.93;56.05
21547;BME280;41275;51.912;4.388;2023-02-16T23:50:15;101932.47;;;15.77;56.22
21547;BME280;41275;51.912;4.388;2023-02-16T23:55:36;101929.56;;;15.66;56.01
